createdAt,value
2022-08-08T00:02:04.293Z,54.60
2022-08-08T00:04:16.298Z,55.10
2022-08-08T00:06:56.053Z,55.20
2022-08-08T00:09:38.079Z,55.40
2022-08-08T00:12:24.658Z,56.60
2022-08-08T00:15:03.369Z,56.30
2022-08-08T00:17:58.458Z,56.70
2022-08-08T00:20:37.126Z,56.00
2022-08-08T00:41:06.731Z,56.40
2022-08-08T00:43:59.257Z,56.60
2022-08-08T00:50:21.431Z,56.60
2022-08-08T00:52:56.447Z,56.80
2022-08-08T00:55:52.597Z,56.50
2022-08-08T00:58:18.012Z,56.40
2022-08-08T01:00:57.310Z,56.80
2022-08-08T01:04:01.252Z,56.90
2022-08-08T01:06:50.314Z,57.20
2022-08-08T01:09:36.802Z,57.80
2022-08-08T01:12:14.113Z,57.90
2022-08-08T01:15:11.373Z,57.70
2022-08-08T01:17:53.226Z,58.20
2022-08-08T01:20:34.039Z,58.40
2022-08-08T01:23:15.916Z,58.70
2022-08-08T01:26:02.260Z,58.30
2022-08-08T01:28:45.049Z,58.60
2022-08-08T01:32:02.651Z,58.40
2022-08-08T01:34:11.226Z,58.30
2022-08-08T01:36:48.610Z,58.30
2022-08-08T01:39:20.129Z,58.20
2022-08-08T01:42:10.586Z,58.80
2022-08-08T01:48:43.794Z,59.10
2022-08-08T01:51:31.435Z,59.10
2022-08-08T01:55:15.878Z,59.70
2022-08-08T01:56:57.034Z,60.30
2022-08-08T01:59:24.176Z,59.80
2022-08-08T02:02:34.236Z,60.10
2022-08-08T02:05:11.418Z,60.20
2022-08-08T02:07:41.874Z,60.00
2022-08-08T02:10:44.647Z,60.40
2022-08-08T02:13:15.849Z,60.10
2022-08-08T02:16:07.796Z,60.60
2022-08-08T02:18:34.640Z,61.00
2022-08-08T02:21:32.839Z,61.10
2022-08-08T02:24:30.926Z,61.00
2022-08-08T02:27:07.465Z,60.50
2022-08-08T02:29:47.002Z,61.00
2022-08-08T02:32:28.613Z,60.40
2022-08-08T02:35:11.591Z,60.60
2022-08-08T02:37:52.217Z,60.50
2022-08-08T02:40:36.381Z,60.50
2022-08-08T02:44:38.976Z,60.70
2022-08-08T02:49:59.521Z,60.70
2022-08-08T02:52:50.570Z,60.40
2022-08-08T02:55:38.919Z,61.10
2022-08-08T02:58:26.608Z,60.90
2022-08-08T03:00:53.953Z,61.90
2022-08-08T03:05:00.469Z,63.00
2022-08-08T03:06:24.276Z,62.80
2022-08-08T03:09:10.658Z,60.40
2022-08-08T03:12:01.181Z,58.00
2022-08-08T03:16:03.866Z,56.60
2022-08-08T03:17:34.023Z,57.40
2022-08-08T03:20:07.978Z,58.50
2022-08-08T03:22:46.065Z,60.00
2022-08-08T03:25:18.401Z,61.50
2022-08-08T03:27:56.320Z,61.40
2022-08-08T03:30:24.195Z,62.20
2022-08-08T03:33:56.683Z,61.90
2022-08-08T03:35:58.450Z,63.00
2022-08-08T03:38:56.737Z,62.00
2022-08-08T03:42:12.266Z,61.80
2022-08-08T03:43:59.550Z,61.60
2022-08-08T03:50:37.563Z,62.60
2022-08-08T03:53:07.481Z,63.00
2022-08-08T03:55:56.241Z,63.40
2022-08-08T03:58:36.130Z,63.50
2022-08-08T04:01:24.626Z,63.80
2022-08-08T04:04:03.033Z,63.50
2022-08-08T04:06:35.239Z,63.50
2022-08-08T04:09:10.847Z,63.80
2022-08-08T04:11:57.810Z,63.50
2022-08-08T04:14:34.072Z,63.80
2022-08-08T04:17:46.512Z,63.60
2022-08-08T04:20:12.149Z,64.10
2022-08-08T04:22:39.094Z,64.30
2022-08-08T04:25:17.325Z,64.10
2022-08-08T04:28:10.520Z,63.70
2022-08-08T04:30:36.391Z,63.90
2022-08-08T04:33:15.426Z,64.00
2022-08-08T04:35:51.327Z,64.00
2022-08-08T04:38:21.638Z,64.20
2022-08-08T04:40:54.478Z,64.40
2022-08-08T04:43:22.542Z,64.20
2022-08-08T04:46:18.579Z,64.60
2022-08-08T04:49:28.923Z,64.80
2022-08-08T04:52:11.017Z,64.80
2022-08-08T04:54:42.426Z,64.90
2022-08-08T04:57:09.944Z,65.20
2022-08-08T04:59:41.895Z,65.20
2022-08-08T05:02:13.847Z,65.60
2022-08-08T05:04:42.004Z,65.60
2022-08-08T05:07:21.447Z,65.20
2022-08-08T05:09:55.772Z,65.00
2022-08-08T05:12:29.540Z,64.60
2022-08-08T05:14:56.408Z,65.00
2022-08-08T05:17:23.632Z,65.40
2022-08-08T05:20:11.422Z,64.70
2022-08-08T05:22:38.206Z,65.30
2022-08-08T05:25:05.825Z,65.10
2022-08-08T05:27:41.148Z,65.00
2022-08-08T05:30:10.943Z,64.70
2022-08-08T05:32:39.029Z,64.80
2022-08-08T05:35:07.073Z,65.50
2022-08-08T05:37:53.002Z,65.70
2022-08-08T05:40:28.171Z,65.30
2022-08-08T05:42:59.660Z,64.40
2022-08-08T05:45:43.063Z,64.70
2022-08-08T05:52:13.885Z,64.70
2022-08-08T05:54:51.028Z,64.10
2022-08-08T05:57:20.868Z,64.10
2022-08-08T06:00:22.558Z,64.00
2022-08-08T06:03:25.166Z,64.80
2022-08-08T06:06:01.363Z,64.00
2022-08-08T06:08:55.062Z,63.50
2022-08-08T06:11:45.786Z,63.90
2022-08-08T06:14:17.989Z,63.30
2022-08-08T06:16:45.701Z,63.80
2022-08-08T06:19:23.979Z,63.40
2022-08-08T06:21:56.889Z,63.60
2022-08-08T06:24:35.986Z,63.60
2022-08-08T06:27:05.500Z,63.50
2022-08-08T06:30:01.065Z,63.30
2022-08-08T06:32:30.439Z,62.90
2022-08-08T06:36:04.844Z,63.10
2022-08-08T06:38:00.596Z,62.00
2022-08-08T06:40:33.352Z,61.70
2022-08-08T06:43:09.737Z,61.80
2022-08-08T06:45:39.013Z,61.60
2022-08-08T06:52:04.684Z,61.70
2022-08-08T06:54:32.727Z,61.10
2022-08-08T06:57:00.706Z,61.50
2022-08-08T06:59:27.421Z,60.60
2022-08-08T07:02:26.291Z,60.00
2022-08-08T07:05:11.906Z,60.00
2022-08-08T07:07:55.384Z,60.00
2022-08-08T07:10:24.328Z,59.80
2022-08-08T07:12:57.494Z,59.40
2022-08-08T07:16:03.763Z,59.30
2022-08-08T07:18:40.742Z,59.00
2022-08-08T07:21:19.126Z,59.00
2022-08-08T07:24:01.621Z,59.30
2022-08-08T07:26:35.743Z,59.60
2022-08-08T07:29:20.310Z,58.90
2022-08-08T07:31:55.827Z,58.80
2022-08-08T07:34:31.700Z,58.70
2022-08-08T07:36:59.631Z,59.80
2022-08-08T07:39:55.818Z,58.60
2022-08-08T07:42:37.516Z,58.60
2022-08-08T07:45:14.998Z,58.50
2022-08-08T07:47:49.175Z,57.80
2022-08-08T07:54:44.192Z,56.60
2022-08-08T07:57:28.436Z,56.90
2022-08-08T08:00:15.821Z,56.50
2022-08-08T08:03:01.986Z,56.00
2022-08-08T08:05:33.691Z,56.00
2022-08-08T08:08:05.212Z,55.20
2022-08-08T08:10:35.617Z,56.10
2022-08-08T08:13:25.757Z,55.20
2022-08-08T08:16:12.037Z,55.20
2022-08-08T08:18:55.478Z,54.90
2022-08-08T08:21:44.256Z,54.50
2022-08-08T08:24:30.802Z,53.90
2022-08-08T08:27:04.718Z,54.60
2022-08-08T08:29:39.836Z,54.80
2022-08-08T08:32:10.947Z,54.10
2022-08-08T08:34:43.219Z,54.40
2022-08-08T08:37:16.468Z,54.50
2022-08-08T08:40:00.278Z,54.90
2022-08-08T08:42:36.255Z,54.10
2022-08-08T08:45:20.738Z,54.20
2022-08-08T08:47:54.553Z,54.70
2022-08-08T08:54:40.402Z,54.40
2022-08-08T08:57:17.130Z,54.40
2022-08-08T08:59:59.502Z,54.40
2022-08-08T09:02:31.430Z,54.30
2022-08-08T09:05:02.630Z,53.70
2022-08-08T09:07:39.121Z,53.30
2022-08-08T09:10:29.107Z,53.50
2022-08-08T09:12:58.092Z,53.80
2022-08-08T09:15:37.485Z,53.90
2022-08-08T09:18:09.094Z,53.10
2022-08-08T09:21:58.840Z,53.70
2022-08-08T09:23:26.150Z,53.30
2022-08-08T09:26:06.286Z,52.70
2022-08-08T09:28:40.334Z,52.70
2022-08-08T09:31:15.029Z,52.20
2022-08-08T09:34:15.413Z,52.40
2022-08-08T09:36:38.979Z,52.20
2022-08-08T09:39:15.389Z,51.70
2022-08-08T09:41:55.017Z,51.90
2022-08-08T09:44:42.724Z,51.60
2022-08-08T09:48:05.066Z,50.60
2022-08-08T09:54:37.465Z,50.50
2022-08-08T09:57:05.331Z,50.40
2022-08-08T10:00:02.044Z,50.80
2022-08-08T10:02:36.486Z,50.60
2022-08-08T10:05:14.500Z,50.30
2022-08-08T10:07:59.852Z,50.50
2022-08-08T10:10:33.584Z,50.80
2022-08-08T10:13:29.972Z,50.30
2022-08-08T10:16:09.164Z,49.50
2022-08-08T10:18:36.723Z,49.60
2022-08-08T10:21:25.229Z,48.90
2022-08-08T10:24:05.294Z,49.50
2022-08-08T10:27:00.154Z,49.30
2022-08-08T10:29:44.074Z,48.60
2022-08-08T10:32:34.349Z,49.00
2022-08-08T10:35:11.862Z,48.30
2022-08-08T10:38:05.320Z,48.60
2022-08-08T10:40:33.922Z,48.20
2022-08-08T10:43:06.176Z,47.80
2022-08-08T10:45:56.436Z,47.90
2022-08-08T10:48:57.477Z,48.30
2022-08-08T10:55:53.257Z,47.50
2022-08-08T10:58:36.946Z,48.40
2022-08-08T11:01:15.821Z,46.80
2022-08-08T11:03:57.979Z,48.20
2022-08-08T11:06:34.512Z,47.40
2022-08-08T11:09:09.706Z,47.60
2022-08-08T11:12:06.439Z,48.10
2022-08-08T11:14:50.976Z,47.50
2022-08-08T11:18:00.585Z,47.20
2022-08-08T11:20:27.237Z,48.50
2022-08-08T11:22:59.768Z,47.10
2022-08-08T11:25:51.707Z,47.30
2022-08-08T11:28:35.159Z,47.80
2022-08-08T11:31:11.179Z,46.00
2022-08-08T11:33:52.686Z,47.20
2022-08-08T11:36:36.419Z,45.40
2022-08-08T11:39:12.780Z,46.50
2022-08-08T11:41:40.888Z,46.20
2022-08-08T11:44:10.903Z,45.80
2022-08-08T11:46:39.721Z,45.30
2022-08-08T11:49:11.590Z,45.30
2022-08-08T11:55:35.823Z,44.80
2022-08-08T11:58:15.892Z,45.00
2022-08-08T12:00:56.448Z,45.40
2022-08-08T12:03:24.601Z,45.20
2022-08-08T12:06:15.372Z,44.70
2022-08-08T12:08:43.115Z,45.40
2022-08-08T12:11:18.155Z,44.80
2022-08-08T12:14:03.583Z,44.30
2022-08-08T12:16:39.586Z,44.10
2022-08-08T12:19:31.223Z,44.30
2022-08-08T12:22:09.434Z,44.20
2022-08-08T12:24:51.556Z,46.00
2022-08-08T12:27:21.135Z,44.60
2022-08-08T12:30:33.321Z,44.50
2022-08-08T12:33:09.401Z,43.60
2022-08-08T12:35:39.942Z,44.00
2022-08-08T12:38:10.496Z,44.70
2022-08-08T12:40:58.529Z,43.40
2022-08-08T12:43:43.838Z,43.50
2022-08-08T12:46:26.304Z,44.10
2022-08-08T12:49:43.554Z,43.70
2022-08-08T12:56:19.153Z,44.70
2022-08-08T12:58:51.805Z,43.60
2022-08-08T13:01:24.268Z,43.30
2022-08-08T13:03:53.974Z,43.30
2022-08-08T13:06:21.115Z,43.80
2022-08-08T13:08:53.447Z,43.50
2022-08-08T13:11:28.608Z,44.10
2022-08-08T13:14:17.372Z,43.40
2022-08-08T13:16:49.419Z,43.40
2022-08-08T13:19:20.180Z,43.20
2022-08-08T13:21:55.492Z,43.70
2022-08-08T13:24:47.917Z,42.90
2022-08-08T13:27:19.518Z,42.90
2022-08-08T13:29:52.925Z,43.00
2022-08-08T13:32:37.711Z,43.20
2022-08-08T13:35:25.128Z,43.10
2022-08-08T13:38:06.901Z,42.90
2022-08-08T13:40:41.321Z,42.20
2022-08-08T13:43:21.097Z,43.10
2022-08-08T13:45:52.807Z,42.60
2022-08-08T13:48:25.913Z,42.80
2022-08-08T13:50:57.719Z,42.80
2022-08-08T13:58:08.878Z,43.10
2022-08-08T14:00:45.061Z,42.80
2022-08-08T14:03:47.232Z,43.30
2022-08-08T14:06:32.380Z,42.70
2022-08-08T14:08:59.706Z,42.90
2022-08-08T14:11:28.024Z,42.30
2022-08-08T14:13:59.795Z,41.80
2022-08-08T14:16:31.198Z,42.40
2022-08-08T14:18:59.442Z,41.90
2022-08-08T14:21:49.143Z,41.60
2022-08-08T14:24:29.720Z,42.10
2022-08-08T14:26:56.809Z,42.50
2022-08-08T14:29:30.097Z,41.60
2022-08-08T14:32:10.642Z,41.90
2022-08-08T14:34:53.861Z,41.90
2022-08-08T14:37:21.517Z,42.00
2022-08-08T14:40:06.366Z,42.10
2022-08-08T14:42:55.073Z,41.70
2022-08-08T14:45:29.025Z,41.80
2022-08-08T14:48:02.761Z,41.80
2022-08-08T14:50:38.080Z,41.70
2022-08-08T14:56:53.551Z,41.80
2022-08-08T14:59:31.386Z,41.50
2022-08-08T15:02:07.486Z,41.10
2022-08-08T15:04:35.109Z,41.80
2022-08-08T15:07:02.755Z,42.70
2022-08-08T15:09:31.172Z,42.50
2022-08-08T15:11:57.885Z,41.80
2022-08-08T15:14:26.838Z,40.90
2022-08-08T15:16:54.344Z,42.20
2022-08-08T15:19:21.518Z,41.80
2022-08-08T15:21:50.622Z,40.80
2022-08-08T15:24:17.392Z,41.30
2022-08-08T15:26:52.267Z,41.30
2022-08-08T15:29:22.361Z,41.10
2022-08-08T15:32:17.895Z,40.90
2022-08-08T15:34:38.685Z,40.90
2022-08-08T15:37:05.845Z,41.20
2022-08-08T15:39:38.138Z,40.40
2022-08-08T15:42:13.018Z,40.40
2022-08-08T15:44:42.085Z,41.50
2022-08-08T15:47:16.106Z,40.60
2022-08-08T15:49:47.849Z,40.90
2022-08-08T15:52:15.590Z,40.50
2022-08-08T15:59:01.503Z,40.00
2022-08-08T16:01:40.854Z,40.60
2022-08-08T16:04:15.966Z,40.50
2022-08-08T16:06:47.704Z,40.60
2022-08-08T16:13:02.457Z,40.20
2022-08-08T16:13:12.069Z,41.00
2022-08-08T16:14:53.455Z,40.50
2022-08-08T16:17:57.542Z,40.10
2022-08-08T16:20:13.020Z,40.20
2022-08-08T16:22:41.628Z,40.60
2022-08-08T16:25:09.301Z,40.80
2022-08-08T16:27:36.978Z,40.40
2022-08-08T16:30:13.407Z,40.20
2022-08-08T16:33:20.023Z,40.40
2022-08-08T16:36:02.784Z,40.30
2022-08-08T16:38:31.975Z,40.40
2022-08-08T16:41:01.837Z,40.00
2022-08-08T16:43:28.861Z,40.10
2022-08-08T16:46:44.297Z,40.20
2022-08-08T16:48:56.024Z,40.70
2022-08-08T16:55:01.178Z,40.00
2022-08-08T16:55:20.753Z,40.10
2022-08-08T16:58:13.841Z,41.00
2022-08-08T17:00:26.999Z,40.40
2022-08-08T17:02:54.115Z,39.50
2022-08-08T17:05:21.089Z,41.50
2022-08-08T17:07:51.208Z,40.00
2022-08-08T17:10:19.341Z,40.40
2022-08-08T17:12:52.706Z,40.50
2022-08-08T17:15:21.281Z,40.20
2022-08-08T17:18:02.463Z,39.70
2022-08-08T17:20:32.059Z,40.00
2022-08-08T17:23:18.449Z,40.20
2022-08-08T17:25:53.459Z,40.10
2022-08-08T17:28:34.299Z,39.90
2022-08-08T17:31:44.282Z,40.30
2022-08-08T17:34:52.812Z,39.80
2022-08-08T17:36:37.267Z,39.90
2022-08-08T17:39:05.402Z,40.70
2022-08-08T17:41:58.101Z,40.80
2022-08-08T17:44:26.830Z,40.10
2022-08-08T17:46:55.532Z,40.20
2022-08-08T17:49:24.903Z,41.20
2022-08-08T17:51:55.363Z,40.10
2022-08-08T17:58:50.286Z,40.60
2022-08-08T18:01:29.854Z,41.40
2022-08-08T18:04:04.686Z,40.40
2022-08-08T18:06:35.879Z,40.30
2022-08-08T18:09:10.198Z,41.00
2022-08-08T18:11:38.580Z,40.80
2022-08-08T18:14:21.770Z,40.80
2022-08-08T18:16:52.879Z,41.20
2022-08-08T18:19:21.863Z,41.70
2022-08-08T18:22:00.910Z,42.10
2022-08-08T18:24:30.183Z,41.50
2022-08-08T18:26:57.626Z,41.80
2022-08-08T18:29:33.005Z,42.10
2022-08-08T18:32:03.580Z,42.40
2022-08-08T18:34:31.011Z,42.10
2022-08-08T18:37:00.589Z,43.10
2022-08-08T18:39:29.172Z,43.10
2022-08-08T18:42:02.959Z,42.90
2022-08-08T18:44:32.889Z,43.20
2022-08-08T18:47:02.341Z,44.50
2022-08-08T18:49:32.674Z,44.10
2022-08-08T18:52:08.873Z,44.00
2022-08-08T18:59:11.047Z,44.70
2022-08-08T19:02:25.733Z,45.00
2022-08-08T19:04:27.913Z,44.90
2022-08-08T19:06:56.487Z,45.70
2022-08-08T19:09:49.285Z,48.40
2022-08-08T19:12:13.451Z,48.50
2022-08-08T19:14:40.465Z,48.30
2022-08-08T19:17:10.638Z,47.00
2022-08-08T19:19:44.151Z,47.60
2022-08-08T19:22:26.166Z,47.10
2022-08-08T19:26:01.106Z,47.20
2022-08-08T19:27:55.574Z,46.90
2022-08-08T19:30:26.314Z,47.00
2022-08-08T19:32:54.162Z,47.00
2022-08-08T19:35:44.078Z,46.80
2022-08-08T19:38:12.962Z,46.90
2022-08-08T19:40:44.226Z,46.50
2022-08-08T19:43:11.933Z,46.60
2022-08-08T19:45:59.989Z,46.70
2022-08-08T19:48:29.084Z,46.60
2022-08-08T19:50:59.077Z,46.50
2022-08-08T19:53:51.094Z,46.50
2022-08-08T20:00:32.231Z,46.50
2022-08-08T20:03:00.235Z,47.00
2022-08-08T20:06:14.185Z,46.90
2022-08-08T20:08:39.522Z,46.80
2022-08-08T20:11:01.080Z,46.90
2022-08-08T20:14:33.510Z,46.80
2022-08-08T20:16:16.023Z,47.40
2022-08-08T20:18:52.643Z,47.00
2022-08-08T20:21:25.081Z,46.80
2022-08-08T20:23:54.172Z,47.10
2022-08-08T20:26:29.852Z,47.10
2022-08-08T20:29:00.238Z,46.90
2022-08-08T20:31:28.168Z,47.10
2022-08-08T20:34:29.509Z,47.00
2022-08-08T20:36:59.474Z,47.20
2022-08-08T20:39:26.957Z,47.10
2022-08-08T20:42:00.709Z,46.90
2022-08-08T20:44:27.520Z,47.00
2022-08-08T20:46:54.277Z,47.20
2022-08-08T20:49:22.128Z,47.20
2022-08-08T20:51:59.311Z,47.10
2022-08-08T20:54:28.265Z,47.10
2022-08-08T20:57:33.271Z,47.10
2022-08-08T21:00:00.465Z,47.40
2022-08-08T21:02:27.693Z,47.20
2022-08-08T21:05:00.944Z,47.40
2022-08-08T21:07:47.083Z,47.30
2022-08-08T21:10:16.453Z,47.30
2022-08-08T21:12:44.569Z,47.40
2022-08-08T21:15:16.562Z,47.40
2022-08-08T21:18:00.106Z,47.40
2022-08-08T21:20:34.620Z,48.00
2022-08-08T21:23:08.873Z,47.50
2022-08-08T21:25:36.732Z,47.50
2022-08-08T21:28:09.376Z,47.60
2022-08-08T21:30:41.932Z,47.60
2022-08-08T21:33:11.647Z,48.40
2022-08-08T21:36:17.840Z,47.90
2022-08-08T21:38:25.747Z,47.60
2022-08-08T21:40:55.603Z,47.60
2022-08-08T21:43:31.317Z,48.10
2022-08-08T21:48:06.766Z,47.60
2022-08-08T21:48:53.032Z,48.00
2022-08-08T21:54:18.084Z,47.80
2022-08-08T21:54:31.997Z,47.90
2022-08-08T21:56:56.681Z,47.90
2022-08-08T21:59:26.004Z,48.10
2022-08-08T22:02:10.664Z,47.90
2022-08-08T22:04:37.446Z,48.10
2022-08-08T22:07:04.166Z,48.70
2022-08-08T22:09:40.705Z,48.80
2022-08-08T22:12:09.742Z,48.70
2022-08-08T22:14:36.778Z,48.60
2022-08-08T22:17:04.081Z,48.90
2022-08-08T22:20:12.849Z,48.70
2022-08-08T22:22:17.993Z,48.80
2022-08-08T22:24:44.742Z,49.10
2022-08-08T22:27:11.522Z,49.20
2022-08-08T22:30:01.113Z,49.00
2022-08-08T22:32:28.615Z,49.30
2022-08-08T22:34:55.409Z,49.70
2022-08-08T22:37:49.474Z,49.50
2022-08-08T22:40:16.364Z,50.10
2022-08-08T22:42:45.658Z,50.10
2022-08-08T22:45:14.734Z,49.90
2022-08-08T22:47:47.197Z,50.50
2022-08-08T22:50:25.596Z,50.30
2022-08-08T22:53:22.323Z,50.80
2022-08-08T22:55:59.266Z,50.90
2022-08-08T23:02:50.330Z,50.70
2022-08-08T23:05:21.437Z,50.80
2022-08-08T23:07:56.826Z,51.10
2022-08-08T23:10:26.795Z,51.40
2022-08-08T23:12:54.595Z,51.30
2022-08-08T23:16:39.107Z,51.10
2022-08-08T23:18:11.837Z,51.70
2022-08-08T23:20:39.923Z,51.90
2022-08-08T23:23:06.749Z,52.30
2022-08-08T23:25:37.391Z,52.00
2022-08-08T23:28:15.619Z,52.10
2022-08-08T23:30:45.573Z,51.80
2022-08-08T23:33:19.128Z,51.60
2022-08-08T23:36:07.516Z,51.90
2022-08-08T23:38:35.023Z,52.20
2022-08-08T23:41:02.418Z,51.20
2022-08-08T23:51:41.622Z,51.20
2022-08-08T23:54:39.018Z,52.60
2022-08-08T23:56:51.984Z,53.50
2022-08-08T23:59:20.712Z,53.80
